createdAt,value
2019-05-22T00:00:17.518Z,50378.81
2019-05-22T00:02:46.947Z,50358.54
2019-05-22T00:05:17.812Z,50381.85
2019-05-22T00:07:48.747Z,50389.96
2019-05-22T00:10:20.496Z,50399.08
2019-05-22T00:12:49.566Z,50365.63
2019-05-22T00:15:20.585Z,50379.82
2019-05-22T00:17:51.125Z,50380.83
2019-05-22T00:20:23.279Z,50393.00
2019-05-22T00:22:53.317Z,50366.64
2019-05-22T00:25:24.713Z,50347.38
2019-05-22T00:27:53.931Z,50338.26
2019-05-22T00:30:24.744Z,50370.70
2019-05-22T00:32:53.377Z,50363.60
2019-05-22T00:35:25.311Z,50399.08
2019-05-22T00:37:54.757Z,50353.46
2019-05-22T00:40:25.084Z,50429.49
2019-05-22T00:43:03.310Z,50432.53
2019-05-22T00:45:25.328Z,50443.68
2019-05-22T00:47:54.665Z,50425.43
2019-05-22T00:50:28.539Z,50410.23
2019-05-22T00:53:11.862Z,50441.65
2019-05-22T00:55:48.201Z,50458.88
2019-05-22T00:58:35.375Z,50469.02
2019-05-22T01:01:18.361Z,50422.39
2019-05-22T01:03:48.568Z,50474.09
2019-05-22T01:06:18.932Z,50514.63
2019-05-22T01:08:48.972Z,50457.87
2019-05-22T01:11:20.942Z,50445.70
2019-05-22T01:13:50.090Z,50506.52
2019-05-22T01:16:19.351Z,50459.90
2019-05-22T01:18:47.750Z,50464.96
2019-05-22T01:21:21.382Z,50464.96
2019-05-22T01:23:51.796Z,50498.41
2019-05-22T01:26:22.267Z,50451.79
2019-05-22T01:28:51.449Z,50455.84
2019-05-22T01:31:25.041Z,50459.90
2019-05-22T01:33:55.832Z,50468.00
2019-05-22T01:36:27.450Z,50436.58
2019-05-22T01:39:00.763Z,50474.09
2019-05-22T01:41:37.716Z,50436.58
2019-05-22T01:44:07.056Z,50472.06
2019-05-22T01:46:37.225Z,50458.88
2019-05-22T01:49:10.554Z,50446.72
2019-05-22T01:51:39.175Z,50427.46
2019-05-22T01:54:08.884Z,50457.87
2019-05-22T01:56:39.414Z,50454.83
2019-05-22T01:59:09.454Z,50445.70
2019-05-22T02:01:37.940Z,50462.94
2019-05-22T02:04:07.713Z,50445.70
2019-05-22T02:06:37.130Z,50426.45
2019-05-22T02:09:21.506Z,50438.61
2019-05-22T02:11:54.442Z,50399.08
2019-05-22T02:14:24.732Z,50424.42
2019-05-22T02:16:57.117Z,50423.41
2019-05-22T02:19:26.023Z,50447.73
2019-05-22T02:21:55.391Z,50457.87
2019-05-22T02:24:24.059Z,50546.06
2019-05-22T02:26:52.837Z,50556.19
2019-05-22T02:29:22.190Z,50530.85
2019-05-22T02:31:55.485Z,50561.26
2019-05-22T02:34:24.221Z,50590.66
2019-05-22T02:36:53.788Z,50590.66
2019-05-22T02:39:24.509Z,50600.80
2019-05-22T02:42:00.475Z,50620.05
2019-05-22T02:44:29.714Z,50640.33
2019-05-22T02:47:16.527Z,50654.52
2019-05-22T02:49:32.939Z,50709.26
2019-05-22T02:52:02.972Z,50736.63
2019-05-22T02:54:33.982Z,50741.70
2019-05-22T02:57:03.432Z,50737.64
2019-05-22T02:59:32.762Z,50727.50
2019-05-22T03:02:03.799Z,50784.27
2019-05-22T03:04:53.824Z,50792.38
2019-05-22T03:07:26.531Z,50782.25
2019-05-22T03:09:55.292Z,50791.37
2019-05-22T03:12:24.381Z,50811.64
2019-05-22T03:14:52.932Z,50750.82
2019-05-22T03:17:28.216Z,50862.33
2019-05-22T03:19:58.259Z,50862.33
2019-05-22T03:22:28.970Z,50919.10
2019-05-22T03:25:01.792Z,50957.62
2019-05-22T03:27:42.954Z,50945.46
2019-05-22T03:30:17.707Z,50919.10
2019-05-22T03:32:47.814Z,50914.03
2019-05-22T03:35:18.679Z,50931.27
2019-05-22T03:37:47.419Z,50961.68
2019-05-22T03:40:16.461Z,51043.79
2019-05-22T03:42:46.099Z,51075.22
2019-05-22T03:45:15.500Z,51075.22
2019-05-22T03:47:45.367Z,51146.19
2019-05-22T03:50:15.279Z,51150.24
2019-05-22T03:52:43.842Z,51175.59
2019-05-22T03:55:12.967Z,51246.56
2019-05-22T03:57:42.511Z,51273.93
2019-05-22T04:00:15.583Z,51272.92
2019-05-22T04:02:47.044Z,51288.13
2019-05-22T04:05:19.246Z,51283.05
2019-05-22T04:07:48.883Z,51307.39
2019-05-22T04:10:18.929Z,51307.39
2019-05-22T04:12:48.382Z,51303.33
2019-05-22T04:15:17.775Z,51353.01
2019-05-22T04:17:47.083Z,51366.19
2019-05-22T04:20:19.172Z,51341.86
2019-05-22T04:22:49.011Z,51353.01
2019-05-22T04:25:17.661Z,51439.19
2019-05-22T04:27:46.067Z,51470.62
2019-05-22T04:30:17.044Z,51486.84
2019-05-22T04:32:46.243Z,51529.43
2019-05-22T04:35:17.660Z,51541.59
2019-05-22T04:37:48.106Z,51587.22
2019-05-22T04:40:26.062Z,51576.07
2019-05-22T04:42:56.713Z,51550.72
2019-05-22T04:45:26.633Z,51647.04
2019-05-22T04:47:58.642Z,51714.98
2019-05-22T04:50:29.053Z,51714.98
2019-05-22T04:52:58.935Z,51732.21
2019-05-22T04:55:29.504Z,51720.05
2019-05-22T04:58:00.956Z,51808.26
2019-05-22T05:00:31.053Z,51856.93
2019-05-22T05:02:59.946Z,51887.36
2019-05-22T05:05:36.160Z,51898.51
2019-05-22T05:08:05.548Z,51929.95
2019-05-22T05:10:34.311Z,51931.97
2019-05-22T05:13:03.869Z,51946.17
2019-05-22T05:15:32.294Z,51944.14
2019-05-22T05:18:00.689Z,51995.86
2019-05-22T05:20:29.184Z,51987.74
2019-05-22T05:22:57.571Z,52031.34
2019-05-22T05:25:25.968Z,52083.06
2019-05-22T05:27:55.914Z,52092.19
2019-05-22T05:30:26.674Z,52097.26
2019-05-22T05:32:56.393Z,52064.81
2019-05-22T05:35:27.825Z,52067.85
2019-05-22T05:37:56.555Z,52136.81
2019-05-22T05:40:38.823Z,52194.61
2019-05-22T05:43:16.201Z,52214.89
2019-05-22T05:45:47.405Z,52248.36
2019-05-22T05:48:21.227Z,52134.78
2019-05-22T05:50:58.824Z,52220.98
2019-05-22T05:53:29.301Z,52242.27
2019-05-22T05:56:14.893Z,52267.63
2019-05-22T05:58:44.668Z,52334.55
2019-05-22T06:01:20.186Z,52316.30
2019-05-22T06:03:48.639Z,52285.88
2019-05-22T06:06:27.101Z,52195.62
2019-05-22T06:09:00.201Z,52236.19
2019-05-22T06:11:34.365Z,52272.70
2019-05-22T06:14:03.900Z,52272.70
2019-05-22T06:16:57.670Z,52265.60
2019-05-22T06:19:28.400Z,52349.77
2019-05-22T06:21:58.102Z,52282.84
2019-05-22T06:24:38.251Z,52334.55
2019-05-22T06:27:16.258Z,52347.74
2019-05-22T06:30:06.176Z,52309.20
2019-05-22T06:33:13.667Z,52354.84
2019-05-22T06:35:44.290Z,52384.25
2019-05-22T06:38:31.138Z,52424.81
2019-05-22T06:40:59.915Z,52380.19
2019-05-22T06:43:31.584Z,52391.35
2019-05-22T06:46:00.002Z,52406.56
2019-05-22T06:48:28.464Z,52510.00
2019-05-22T06:50:57.730Z,52528.25
2019-05-22T06:53:26.371Z,52530.29
2019-05-22T06:55:54.845Z,52535.36
2019-05-22T06:58:23.252Z,52545.50
2019-05-22T07:00:51.716Z,52616.49
2019-05-22T07:03:20.706Z,52575.92
2019-05-22T07:05:50.392Z,52567.81
2019-05-22T07:08:19.775Z,52517.10
2019-05-22T07:10:48.799Z,52580.99
2019-05-22T07:13:17.943Z,52559.70
2019-05-22T07:15:50.138Z,52550.57
2019-05-22T07:18:19.974Z,52474.51
2019-05-22T07:20:49.741Z,52577.95
2019-05-22T07:23:21.306Z,52559.70
2019-05-22T07:25:51.511Z,52555.64
2019-05-22T07:28:20.567Z,52555.64
2019-05-22T07:30:49.348Z,52507.97
2019-05-22T07:33:19.686Z,52467.41
2019-05-22T07:36:07.971Z,52496.82
2019-05-22T07:38:20.041Z,52471.46
2019-05-22T07:40:51.214Z,52430.90
2019-05-22T07:43:21.354Z,52429.88
2019-05-22T07:45:51.564Z,52507.97
2019-05-22T07:48:21.213Z,52401.49
2019-05-22T07:50:51.885Z,52416.70
2019-05-22T07:53:20.601Z,52391.35
2019-05-22T07:55:51.114Z,52439.01
2019-05-22T07:58:21.276Z,52419.74
2019-05-22T08:00:51.680Z,52384.25
2019-05-22T08:03:21.545Z,52380.19
2019-05-22T08:05:55.385Z,52424.81
2019-05-22T08:08:25.490Z,52456.25
2019-05-22T08:10:55.885Z,52407.57
2019-05-22T08:13:26.689Z,52523.19
2019-05-22T08:15:55.264Z,52402.50
2019-05-22T08:18:25.187Z,52324.41
2019-05-22T08:20:53.885Z,52376.14
2019-05-22T08:23:23.352Z,52275.74
2019-05-22T08:25:52.441Z,52143.91
2019-05-22T08:28:22.265Z,52134.78
2019-05-22T08:30:51.539Z,52239.23
2019-05-22T08:33:21.763Z,52305.14
2019-05-22T08:35:51.606Z,52221.99
2019-05-22T08:38:23.712Z,52319.34
2019-05-22T08:40:52.803Z,52354.84
2019-05-22T08:43:22.311Z,52163.17
2019-05-22T08:45:51.148Z,52040.47
2019-05-22T08:48:20.897Z,52049.60
2019-05-22T08:50:50.549Z,52164.19
2019-05-22T08:53:19.677Z,52135.79
2019-05-22T08:55:49.503Z,51934.00
2019-05-22T08:58:19.065Z,51915.75
2019-05-22T09:00:48.536Z,52083.06
2019-05-22T09:03:24.159Z,52056.70
2019-05-22T09:05:52.989Z,52130.72
2019-05-22T09:08:22.083Z,52057.71
2019-05-22T09:10:50.932Z,52065.82
2019-05-22T09:13:19.340Z,52030.33
2019-05-22T09:15:48.342Z,52066.84
2019-05-22T09:18:17.369Z,52052.64
2019-05-22T09:20:49.317Z,52178.38
2019-05-22T09:23:17.460Z,52013.09
2019-05-22T09:25:46.526Z,51743.37
2019-05-22T09:28:15.271Z,51874.17
2019-05-22T09:30:44.248Z,51809.28
2019-05-22T09:33:13.464Z,51778.86
2019-05-22T09:35:42.383Z,51595.33
2019-05-22T09:38:11.165Z,51628.79
2019-05-22T09:40:40.557Z,51528.41
2019-05-22T09:43:09.173Z,51316.51
2019-05-22T09:45:37.585Z,51502.05
2019-05-22T09:48:07.541Z,51588.23
2019-05-22T09:50:36.296Z,51407.76
2019-05-22T09:53:06.785Z,51796.10
2019-05-22T09:55:36.757Z,51667.32
2019-05-22T09:58:05.729Z,51652.11
2019-05-22T10:00:38.876Z,51635.89
2019-05-22T10:03:05.692Z,51828.54
2019-05-22T10:05:34.537Z,52178.38
2019-05-22T10:08:05.550Z,51806.23
2019-05-22T10:10:34.289Z,51604.46
2019-05-22T10:13:07.188Z,51518.28
2019-05-22T10:15:35.670Z,51584.18
2019-05-22T10:18:07.414Z,51712.95
2019-05-22T10:20:36.471Z,51840.71
2019-05-22T10:23:15.526Z,50902.88
2019-05-22T10:25:37.075Z,50979.93
2019-05-22T10:28:06.942Z,50710.27
2019-05-22T10:30:35.443Z,51130.98
2019-05-22T10:33:04.760Z,51183.70
2019-05-22T10:35:38.309Z,51121.86
2019-05-22T10:38:07.341Z,50695.07
2019-05-22T10:40:36.052Z,50955.60
2019-05-22T10:43:04.733Z,50672.77
2019-05-22T10:45:33.583Z,50754.87
2019-05-22T10:48:02.651Z,50690.00
2019-05-22T10:50:31.027Z,50658.57
2019-05-22T10:52:59.428Z,50145.68
2019-05-22T10:55:27.823Z,49715.96
2019-05-22T10:57:56.529Z,50225.75
2019-05-22T11:00:25.928Z,50650.46
2019-05-22T11:02:54.357Z,50227.78
2019-05-22T11:05:23.316Z,50021.02
2019-05-22T11:07:52.456Z,49664.27
2019-05-22T11:10:24.247Z,49006.61
2019-05-22T11:12:53.087Z,49938.92
2019-05-22T11:15:23.223Z,50266.30
2019-05-22T11:17:52.831Z,49760.55
2019-05-22T11:20:22.541Z,49486.93
2019-05-22T11:22:51.729Z,49288.30
2019-05-22T11:25:21.546Z,48656.04
2019-05-22T11:27:50.373Z,49247.77
2019-05-22T11:30:20.370Z,49226.49
2019-05-22T11:32:49.344Z,49193.05
2019-05-22T11:35:20.082Z,48964.05
2019-05-22T11:37:48.571Z,49169.75
2019-05-22T11:40:18.853Z,49510.23
2019-05-22T11:42:47.881Z,49799.06
2019-05-22T11:45:16.807Z,50111.22
2019-05-22T11:47:45.751Z,49902.44
2019-05-22T11:50:16.625Z,49248.79
2019-05-22T11:52:46.855Z,48980.27
2019-05-22T11:55:16.562Z,48666.17
2019-05-22T11:57:46.974Z,49086.66
2019-05-22T12:00:18.289Z,49308.57
2019-05-22T12:02:47.955Z,49620.70
2019-05-22T12:05:18.097Z,48558.77
2019-05-22T12:07:48.001Z,48695.55
2019-05-22T12:10:18.735Z,49383.56
2019-05-22T12:12:47.963Z,49339.99
2019-05-22T12:15:18.448Z,48995.46
2019-05-22T12:17:50.484Z,49612.59
2019-05-22T12:20:20.741Z,49227.50
2019-05-22T12:22:49.322Z,49200.15
2019-05-22T12:25:18.825Z,49863.92
2019-05-22T12:27:47.841Z,49304.52
2019-05-22T12:30:17.309Z,49804.13
2019-05-22T12:32:46.689Z,49152.52
2019-05-22T12:35:15.843Z,49276.14
2019-05-22T12:37:45.417Z,49361.27
2019-05-22T12:40:17.157Z,49458.55
2019-05-22T12:42:46.376Z,49740.28
2019-05-22T12:45:16.320Z,49936.89
2019-05-22T12:47:45.621Z,49272.09
2019-05-22T12:50:17.202Z,48892.11
2019-05-22T12:52:49.005Z,48495.96
2019-05-22T12:55:17.652Z,48995.46
2019-05-22T12:57:48.638Z,48444.29
2019-05-22T13:00:20.905Z,48312.58
2019-05-22T13:02:49.895Z,48570.93
2019-05-22T13:05:19.141Z,48979.25
2019-05-22T13:07:47.891Z,49259.93
2019-05-22T13:10:17.501Z,49243.72
2019-05-22T13:12:46.625Z,48898.19
2019-05-22T13:15:15.561Z,48398.70
2019-05-22T13:17:44.582Z,48263.96
2019-05-22T13:20:15.394Z,48276.11
2019-05-22T13:22:47.564Z,48841.45
2019-05-22T13:25:17.363Z,48862.73
2019-05-22T13:27:46.071Z,49026.87
2019-05-22T13:30:17.325Z,49279.19
2019-05-22T13:32:47.294Z,49411.94
2019-05-22T13:35:17.993Z,49150.50
2019-05-22T13:37:46.474Z,49039.04
2019-05-22T13:40:27.258Z,48616.52
2019-05-22T13:42:46.571Z,48316.64
2019-05-22T13:45:28.509Z,48016.77
2019-05-22T13:47:47.505Z,48097.82
2019-05-22T13:50:17.552Z,48207.22
2019-05-22T13:52:47.433Z,48194.05
2019-05-22T13:55:17.871Z,48465.56
2019-05-22T13:57:47.343Z,48042.10
2019-05-22T14:00:19.388Z,47797.97
2019-05-22T14:02:47.884Z,47500.17
2019-05-22T14:05:19.913Z,47832.41
2019-05-22T14:07:48.902Z,47812.15
2019-05-22T14:10:17.927Z,47755.43
2019-05-22T14:12:46.923Z,47789.87
2019-05-22T14:15:16.267Z,48174.80
2019-05-22T14:17:45.176Z,48072.49
2019-05-22T14:20:16.440Z,48275.10
2019-05-22T14:22:45.075Z,48264.97
2019-05-22T14:28:12.192Z,48081.61
2019-05-22T14:30:42.703Z,48259.90
2019-05-22T14:33:11.619Z,48601.32
2019-05-22T14:35:48.427Z,48846.52
2019-05-22T14:38:16.371Z,48605.38
2019-05-22T14:40:48.364Z,48487.85
2019-05-22T14:43:18.630Z,48448.34
2019-05-22T14:45:49.474Z,48294.35
2019-05-22T14:48:17.665Z,48183.92
2019-05-22T14:50:50.149Z,48057.29
2019-05-22T14:53:19.040Z,48430.10
2019-05-22T14:55:49.917Z,48409.84
2019-05-22T14:58:19.253Z,48534.46
2019-05-22T15:00:48.611Z,48828.28
2019-05-22T15:03:17.617Z,48718.85
2019-05-22T15:05:46.135Z,48636.79
2019-05-22T15:08:14.760Z,48568.90
2019-05-22T15:10:43.650Z,48521.29
2019-05-22T15:13:12.045Z,48331.83
2019-05-22T15:15:41.079Z,48554.72
2019-05-22T15:18:09.577Z,48533.44
2019-05-22T15:20:46.634Z,48607.40
2019-05-22T15:23:15.598Z,48586.13
2019-05-22T15:25:43.999Z,48301.44
2019-05-22T15:28:12.767Z,48570.93
2019-05-22T15:30:41.510Z,48750.26
2019-05-22T15:33:09.935Z,48709.73
2019-05-22T15:35:38.670Z,48566.88
2019-05-22T15:38:09.275Z,48371.34
2019-05-22T15:40:38.353Z,48371.34
2019-05-22T15:43:09.442Z,48584.10
2019-05-22T15:45:42.359Z,48538.51
2019-05-22T15:48:25.616Z,48518.25
2019-05-22T15:51:01.553Z,48635.77
2019-05-22T15:53:33.364Z,48760.39
2019-05-22T15:56:05.536Z,48664.14
2019-05-22T15:58:35.027Z,48771.54
2019-05-22T16:01:06.636Z,48787.75
2019-05-22T16:03:35.810Z,48859.69
2019-05-22T16:06:05.740Z,48826.25
2019-05-22T16:08:34.681Z,48715.81
2019-05-22T16:11:04.894Z,48636.79
2019-05-22T16:13:35.501Z,48855.64
2019-05-22T16:16:06.322Z,49083.62
2019-05-22T16:18:37.123Z,49212.30
2019-05-22T16:21:07.621Z,49132.25
2019-05-22T16:23:37.375Z,49337.96
2019-05-22T16:26:08.338Z,49424.10
2019-05-22T16:28:39.488Z,49478.82
2019-05-22T16:31:10.433Z,49210.28
2019-05-22T16:33:41.857Z,49315.67
2019-05-22T16:36:11.007Z,49301.48
2019-05-22T16:38:39.955Z,49121.11
2019-05-22T16:41:10.206Z,49003.57
2019-05-22T16:43:48.983Z,48913.39
2019-05-22T16:46:15.186Z,49014.71
2019-05-22T16:48:44.457Z,48859.69
2019-05-22T16:51:15.144Z,48917.44
2019-05-22T16:53:53.510Z,48753.30
2019-05-22T16:56:23.460Z,49071.46
2019-05-22T16:58:52.922Z,49054.23
2019-05-22T17:01:22.550Z,49117.05
2019-05-22T17:03:54.175Z,49497.06
2019-05-22T17:06:24.298Z,49121.11
2019-05-22T17:08:55.989Z,49312.62
2019-05-22T17:11:25.526Z,49295.40
2019-05-22T17:13:57.734Z,49365.32
2019-05-22T17:16:28.582Z,49372.41
2019-05-22T17:18:58.312Z,49401.80
2019-05-22T17:21:26.941Z,49362.28
2019-05-22T17:23:55.991Z,49316.68
2019-05-22T17:26:25.405Z,49417.00
2019-05-22T17:28:54.563Z,49510.23
2019-05-22T17:31:25.874Z,49501.11
2019-05-22T17:33:55.019Z,49609.55
2019-05-22T17:36:25.150Z,49421.05
2019-05-22T17:38:57.831Z,49376.47
2019-05-22T17:41:28.652Z,49520.37
2019-05-22T17:43:57.218Z,49604.48
2019-05-22T17:46:28.707Z,49686.57
2019-05-22T17:48:59.245Z,49697.71
2019-05-22T17:51:27.968Z,49500.10
2019-05-22T17:53:56.841Z,49329.85
2019-05-22T17:56:25.485Z,49369.37
2019-05-22T17:58:53.883Z,49481.86
2019-05-22T18:01:22.284Z,49487.94
2019-05-22T18:03:51.317Z,49548.74
2019-05-22T18:06:19.909Z,49558.87
2019-05-22T18:08:48.567Z,49444.36
2019-05-22T18:11:17.360Z,49517.33
2019-05-22T18:13:57.845Z,49584.21
2019-05-22T18:16:26.583Z,49590.29
2019-05-22T18:18:55.792Z,49542.66
2019-05-22T18:21:24.829Z,49529.49
2019-05-22T18:23:53.475Z,49541.65
2019-05-22T18:26:22.235Z,49570.02
2019-05-22T18:28:50.627Z,49605.49
2019-05-22T18:31:19.267Z,49506.18
2019-05-22T18:33:47.749Z,49480.84
2019-05-22T18:36:16.263Z,49532.53
2019-05-22T18:38:44.729Z,49532.53
2019-05-22T18:41:13.412Z,49614.61
2019-05-22T18:43:46.865Z,49627.79
2019-05-22T18:46:15.365Z,49646.03
2019-05-22T18:48:43.988Z,49627.79
2019-05-22T18:51:12.727Z,49676.43
2019-05-22T18:53:41.258Z,49678.46
2019-05-22T18:56:11.047Z,49765.62
2019-05-22T18:58:39.968Z,49866.96
2019-05-22T19:01:09.006Z,49926.76
2019-05-22T19:03:37.588Z,50027.10
2019-05-22T19:06:05.977Z,50065.61
2019-05-22T19:08:35.998Z,50124.40
2019-05-22T19:11:08.478Z,50186.22
2019-05-22T19:13:37.278Z,50249.07
2019-05-22T19:16:06.782Z,50265.28
2019-05-22T19:18:35.543Z,50248.05
2019-05-22T19:21:05.255Z,50242.98
2019-05-22T19:23:33.762Z,50211.56
2019-05-22T19:26:05.467Z,50189.27
2019-05-22T19:28:42.730Z,50186.22
2019-05-22T19:31:03.258Z,50185.21
2019-05-22T19:33:31.845Z,50183.18
2019-05-22T19:36:00.570Z,50184.20
2019-05-22T19:38:28.974Z,50194.33
2019-05-22T19:40:58.066Z,50208.52
2019-05-22T19:43:26.561Z,50156.83
2019-05-22T19:45:55.249Z,50148.72
2019-05-22T19:48:23.767Z,50068.65
2019-05-22T19:50:52.235Z,50021.02
2019-05-22T19:53:24.534Z,49996.69
2019-05-22T19:55:53.773Z,49914.60
2019-05-22T19:58:22.526Z,49902.44
2019-05-22T20:00:51.486Z,49856.83
2019-05-22T20:03:19.873Z,49832.50
2019-05-22T20:05:48.767Z,49809.20
2019-05-22T20:08:17.255Z,49798.05
2019-05-22T20:10:46.314Z,49765.62
2019-05-22T20:13:16.075Z,49761.56
2019-05-22T20:15:44.540Z,49741.29
2019-05-22T20:18:13.473Z,49732.17
2019-05-22T20:20:41.996Z,49695.69
2019-05-22T20:23:11.123Z,49676.43
2019-05-22T20:25:39.816Z,49676.43
2019-05-22T20:28:09.314Z,49675.42
2019-05-22T20:30:38.162Z,49645.02
2019-05-22T20:33:07.171Z,49633.87
2019-05-22T20:35:36.261Z,49650.08
2019-05-22T20:38:05.180Z,49624.75
2019-05-22T20:40:33.781Z,49650.08
2019-05-22T20:43:02.678Z,49650.08
2019-05-22T20:45:35.953Z,49691.63
2019-05-22T20:48:07.761Z,49661.23
2019-05-22T20:50:37.424Z,49645.02
2019-05-22T20:53:07.476Z,49709.87
2019-05-22T20:55:36.865Z,49726.09
2019-05-22T20:58:06.083Z,49717.98
2019-05-22T21:00:34.979Z,49703.80
2019-05-22T21:03:06.246Z,49755.48
2019-05-22T21:05:35.979Z,49724.07
2019-05-22T21:08:07.980Z,49720.01
2019-05-22T21:10:37.539Z,49715.96
2019-05-22T21:13:08.335Z,49696.70
2019-05-22T21:15:37.117Z,49726.09
2019-05-22T21:18:07.466Z,49674.41
2019-05-22T21:20:35.922Z,49719.00
2019-05-22T21:23:04.321Z,49756.50
2019-05-22T21:25:32.733Z,49786.90
2019-05-22T21:28:01.286Z,49808.18
2019-05-22T21:30:29.684Z,49814.26
2019-05-22T21:32:58.581Z,49882.16
2019-05-22T21:35:27.300Z,49878.11
2019-05-22T21:37:56.602Z,49934.87
2019-05-22T21:40:25.708Z,49957.16
2019-05-22T21:42:55.396Z,50018.99
2019-05-22T21:45:24.021Z,50076.76
2019-05-22T21:47:53.132Z,50119.33
2019-05-22T21:50:21.775Z,50142.64
2019-05-22T21:52:50.339Z,50211.56
2019-05-22T21:55:20.649Z,50275.42
2019-05-22T21:57:49.822Z,50306.84
2019-05-22T22:00:40.678Z,50330.15
2019-05-22T22:03:12.342Z,50336.23
2019-05-22T22:05:41.805Z,50423.41
2019-05-22T22:08:11.385Z,50403.13
2019-05-22T22:10:40.149Z,50445.70
2019-05-22T22:13:08.896Z,50419.35
2019-05-22T22:15:44.183Z,50450.77
2019-05-22T22:18:13.120Z,50441.65
2019-05-22T22:20:42.803Z,50473.07
2019-05-22T22:23:13.197Z,50527.81
2019-05-22T22:25:42.602Z,50552.14
2019-05-22T22:28:13.506Z,50636.27
2019-05-22T22:30:58.941Z,50674.79
2019-05-22T22:33:32.115Z,50672.77
2019-05-22T22:36:02.366Z,50690.00
2019-05-22T22:38:32.873Z,50717.37
2019-05-22T22:41:02.410Z,50726.49
2019-05-22T22:43:32.931Z,50751.84
2019-05-22T22:46:16.423Z,50788.33
2019-05-22T22:48:46.421Z,50746.77
2019-05-22T22:51:18.192Z,50788.33
2019-05-22T22:53:46.589Z,50872.47
2019-05-22T22:56:17.396Z,50932.28
2019-05-22T22:58:46.565Z,50947.48
2019-05-22T23:01:21.352Z,50947.48
2019-05-22T23:03:52.104Z,50913.02
2019-05-22T23:06:21.354Z,50900.86
2019-05-22T23:08:50.224Z,50881.59
2019-05-22T23:11:21.231Z,50903.89
2019-05-22T23:13:50.292Z,50899.84
2019-05-22T23:16:20.897Z,50932.28
2019-05-22T23:19:06.732Z,50905.92
2019-05-22T23:21:35.620Z,50973.84
2019-05-22T23:24:04.048Z,50947.48
2019-05-22T23:26:33.792Z,50948.50
2019-05-22T23:29:02.246Z,50974.86
2019-05-22T23:31:31.608Z,50992.09
2019-05-22T23:34:00.394Z,51003.24
2019-05-22T23:36:29.665Z,51039.74
2019-05-22T23:39:00.574Z,51087.39
2019-05-22T23:41:32.376Z,51109.69
2019-05-22T23:44:01.074Z,51090.43
2019-05-22T23:46:32.409Z,51119.83
2019-05-22T23:49:02.115Z,51095.50
2019-05-22T23:51:30.969Z,51123.88
2019-05-22T23:54:01.148Z,51125.91
2019-05-22T23:56:30.564Z,51176.60
2019-05-22T23:58:58.950Z,51226.28
